Terminal Aerodrome Forecast
Issued by NWS Twin Cities, MN

Home | Current Version | Previous Version | Graphics & Text | Print | Product List | Glossary Off
Versions: 1 2 3 4 5 6 7 8 9 10 11 12 13 14 15 16

057
FTUS43 KMPX 232346
TAFSTC
TAF
KSTC 232346Z 2400/2424 33016G23KT P6SM SCT035 BKN050
     FM240600 33022G30KT P6SM SCT035
     FM241400 32021G35KT P6SM FEW250
     FM242000 31021G30KT P6SM FEW250=

USA.gov is the U.S. government's official web portal to all federal, state and local government web resources and services.